Time;durP1;ratioP1;P1;durP2;ratioP2;P2;SDS_P1;SDS_P2;PMS_P1;PMS_P2;Temp;Humidity;BMP_temperature;BMP_pressure;BME280_temperature;BME280_humidity;BME280_pressure;Samples;Min_cycle;Max_cycle;Signal;HPM_P1;HPM_P2
2023/07/31 00:00:33;;;;;;;3.10;1.97;;;;;23.30;99994.00;;;;2073528;28;20903;-69
2023/07/31 00:01:34;;;;;;;2.37;1.63;;;;;23.30;99990.00;;;;2077437;28;20220;-69
2023/07/31 00:02:34;;;;;;;2.80;2.20;;;;;23.30;99986.00;;;;2063290;28;20213;-69
2023/07/31 00:03:35;;;;;;;2.13;1.70;;;;;23.30;99994.00;;;;2078332;28;20229;-69
2023/07/31 00:04:35;;;;;;;4.70;1.93;;;;;23.30;99939.00;;;;2076178;28;20222;-69
2023/07/31 00:05:36;;;;;;;2.50;2.27;;;;;23.30;99999.00;;;;2075641;28;20252;-69
2023/07/31 00:06:36;;;;;;;3.60;2.13;;;;;23.30;99987.00;;;;2076289;28;20215;-69
2023/07/31 00:07:36;;;;;;;3.47;2.50;;;;;23.30;99988.00;;;;2061692;28;20216;-69
2023/07/31 00:08:36;;;;;;;4.53;2.53;;;;;23.30;99989.00;;;;2075889;28;20214;-69
2023/07/31 00:09:37;;;;;;;3.70;2.23;;;;;23.30;99990.00;;;;2074933;28;20305;-69
2023/07/31 00:10:37;;;;;;;3.03;2.40;;;;;23.30;99991.00;;;;2075490;28;20225;-69
2023/07/31 00:11:37;;;;;;;4.67;3.50;;;;;23.30;99990.00;;;;2072602;28;20218;-69
2023/07/31 00:12:41;;;;;;;5.50;4.07;;;;;23.30;99989.00;;;;2062117;28;20281;-69
2023/07/31 00:13:42;;;;;;;7.40;4.85;;;;;23.30;99985.00;;;;2064066;28;20245;-69
2023/07/31 00:14:42;;;;;;;7.63;5.57;;;;;23.30;99983.00;;;;2072354;28;20575;-69
2023/07/31 00:15:42;;;;;;;9.90;8.20;;;;;23.30;99986.00;;;;2076552;28;20237;-69
2023/07/31 00:16:43;;;;;;;12.67;11.40;;;;;23.30;99996.00;;;;2072857;28;20206;-69
2023/07/31 00:17:43;;;;;;;15.03;12.60;;;;;23.30;99985.00;;;;2065736;28;20210;-69
2023/07/31 00:18:43;;;;;;;18.10;14.30;;;;;23.30;99987.00;;;;2073462;28;20217;-69
2023/07/31 00:19:46;;;;;;;18.87;15.70;;;;;23.30;99991.00;;;;2072116;28;20221;-69
2023/07/31 00:20:46;;;;;;;19.70;14.23;;;;;23.30;100009.00;;;;2072015;28;20641;-69
2023/07/31 00:21:46;;;;;;;26.53;22.00;;;;;23.30;99993.00;;;;2071397;28;20222;-69
2023/07/31 00:22:46;;;;;;;28.83;19.70;;;;;23.30;99991.00;;;;2064504;28;20249;-69
2023/07/31 00:23:47;;;;;;;29.77;22.03;;;;;23.30;99988.00;;;;2071476;28;20229;-69
2023/07/31 00:24:47;;;;;;;36.63;26.57;;;;;23.30;99986.00;;;;2077173;28;21053;-69
2023/07/31 00:25:48;;;;;;;38.33;29.07;;;;;23.30;99985.00;;;;2076914;28;20692;-69
2023/07/31 00:26:48;;;;;;;42.27;30.73;;;;;23.30;99990.00;;;;2071802;28;20222;-69
2023/07/31 00:27:48;;;;;;;45.20;29.83;;;;;23.30;99980.00;;;;2063214;28;20702;-69
2023/07/31 00:28:49;;;;;;;48.60;35.80;;;;;23.30;99980.00;;;;2076382;28;20271;-69
2023/07/31 00:29:49;;;;;;;44.10;31.90;;;;;23.30;99993.00;;;;2078302;28;20226;-69
2023/07/31 00:30:49;;;;;;;42.67;30.23;;;;;23.30;99990.00;;;;2074027;28;20223;-69
2023/07/31 00:31:50;;;;;;;39.30;27.77;;;;;23.30;99982.00;;;;2077195;28;20213;-69
2023/07/31 00:32:50;;;;;;;42.13;30.40;;;;;23.30;99979.00;;;;2063935;28;20623;-69
2023/07/31 00:33:50;;;;;;;42.10;27.87;;;;;23.30;99985.00;;;;2071105;28;20594;-69
2023/07/31 00:34:51;;;;;;;34.10;25.57;;;;;23.30;99985.00;;;;2065733;28;20273;-69
2023/07/31 00:35:51;;;;;;;38.23;26.60;;;;;23.30;99982.00;;;;2069779;28;20305;-69
2023/07/31 00:36:51;;;;;;;37.33;27.07;;;;;23.30;99988.00;;;;2076623;28;20222;-69
2023/07/31 00:37:52;;;;;;;35.60;25.70;;;;;23.30;99980.00;;;;2063374;28;20214;-69
2023/07/31 00:38:52;;;;;;;36.70;25.83;;;;;23.30;99990.00;;;;2076319;28;20220;-69
2023/07/31 00:39:52;;;;;;;34.07;23.50;;;;;23.30;99980.00;;;;2067968;28;20207;-69
2023/07/31 00:40:53;;;;;;;35.73;24.97;;;;;23.30;99983.00;;;;2070477;28;20210;-69
2023/07/31 00:41:53;;;;;;;31.03;22.63;;;;;23.30;99987.00;;;;2077584;28;20209;-69
2023/07/31 00:42:53;;;;;;;35.80;25.17;;;;;23.30;99980.00;;;;2067504;28;20719;-69
2023/07/31 00:43:54;;;;;;;31.93;23.03;;;;;23.30;99983.00;;;;2077326;28;20218;-69
2023/07/31 00:44:54;;;;;;;32.20;22.90;;;;;23.30;99991.00;;;;2070931;28;20279;-69
2023/07/31 00:45:54;;;;;;;30.03;21.67;;;;;23.30;99982.00;;;;2077123;28;20210;-69
2023/07/31 00:46:55;;;;;;;31.67;22.10;;;;;23.30;99986.00;;;;2068010;28;20716;-69
2023/07/31 00:47:55;;;;;;;29.97;21.20;;;;;23.30;99991.00;;;;2053184;28;20640;-69
2023/07/31 00:48:56;;;;;;;29.00;20.83;;;;;23.30;99979.00;;;;2069119;28;20637;-69
2023/07/31 00:49:56;;;;;;;30.30;20.73;;;;;23.30;99968.00;;;;2058194;28;20211;-69
2023/07/31 00:50:56;;;;;;;31.67;20.83;;;;;23.30;99982.00;;;;2069430;28;20230;-69
2023/07/31 00:51:57;;;;;;;30.77;19.90;;;;;23.30;99972.00;;;;2071994;28;20207;-69
2023/07/31 00:52:57;;;;;;;27.13;19.73;;;;;23.30;99977.00;;;;2072672;28;20579;-69
2023/07/31 00:53:58;;;;;;;28.57;19.23;;;;;23.30;99982.00;;;;2063227;28;20249;-69
2023/07/31 00:54:58;;;;;;;22.80;17.27;;;;;23.30;99946.00;;;;2054893;28;20220;-69
2023/07/31 00:55:58;;;;;;;29.03;18.90;;;;;23.30;99971.00;;;;2060980;28;20233;-69
2023/07/31 00:56:59;;;;;;;25.00;18.07;;;;;23.30;99938.00;;;;2046148;28;20358;-69
2023/07/31 00:57:59;;;;;;;23.97;17.90;;;;;23.30;99968.00;;;;2061400;28;20219;-69
2023/07/31 00:58:59;;;;;;;23.93;17.40;;;;;23.30;99969.00;;;;2064977;28;20645;-69
2023/07/31 01:00:00;;;;;;;22.97;16.40;;;;;23.30;99980.00;;;;2076239;28;20609;-69
2023/07/31 01:01:00;;;;;;;23.40;16.70;;;;;23.30;99984.00;;;;2065077;28;20674;-69
2023/07/31 01:02:00;;;;;;;26.00;16.37;;;;;23.30;99977.00;;;;2060207;28;20574;-69
2023/07/31 01:03:01;;;;;;;20.57;15.33;;;;;23.30;99977.00;;;;2071117;28;20563;-69
2023/07/31 01:04:01;;;;;;;23.10;16.27;;;;;23.30;99980.00;;;;2062910;28;20710;-69
2023/07/31 01:05:02;;;;;;;25.13;16.60;;;;;23.30;99976.00;;;;2064473;28;20215;-69
2023/07/31 01:06:20;;;;;;;21.50;15.30;;;;;23.30;99982.00;;;;2077845;28;20225;-69
2023/07/31 01:07:31;;;;;;;19.30;13.95;;;;;23.30;99981.00;;;;2059795;28;20279;-69
2023/07/31 01:08:50;;;;;;;21.02;15.68;;;;;23.30;99975.00;;;;2068272;28;20225;-69
2023/07/31 01:10:02;;;;;;;19.45;13.63;;;;;23.30;99981.00;;;;2069676;28;20226;-69
2023/07/31 01:11:08;;;;;;;15.90;12.85;;;;;23.30;99953.00;;;;2078546;28;20222;-69
2023/07/31 01:12:09;;;;;;;20.05;13.68;;;;;23.30;99977.00;;;;2054062;28;20293;-69
2023/07/31 01:13:09;;;;;;;17.83;12.07;;;;;23.30;99978.00;;;;2068877;28;20702;-69
2023/07/31 01:14:10;;;;;;;18.80;13.70;;;;;23.30;99973.00;;;;2062716;28;20226;-69
2023/07/31 01:15:14;;;;;;;20.50;13.27;;;;;23.30;99984.00;;;;2062704;28;20273;-69
2023/07/31 01:16:15;;;;;;;16.77;11.95;;;;;23.30;99980.00;;;;2076886;28;20257;-69
2023/07/31 01:17:15;;;;;;;16.30;11.60;;;;;23.30;99975.00;;;;2061312;28;20230;-69
2023/07/31 01:18:15;;;;;;;15.87;12.00;;;;;23.30;99978.00;;;;2075734;28;20570;-69
2023/07/31 01:19:17;;;;;;;17.30;11.73;;;;;23.30;99964.00;;;;2065427;28;20707;-69
2023/07/31 01:20:22;;;;;;;16.23;12.00;;;;;23.30;99977.00;;;;2071094;28;20623;-69
2023/07/31 01:21:47;;;;;;;16.73;11.38;;;;;23.30;99960.00;;;;2076863;28;20217;-69
2023/07/31 01:22:53;;;;;;;17.30;11.90;;;;;23.30;99968.00;;;;2062177;28;20756;-69
2023/07/31 01:23:53;;;;;;;13.55;10.18;;;;;23.30;99968.00;;;;2067151;28;20610;-69
2023/07/31 01:25:41;;;;;;;14.63;10.50;;;;;23.30;99973.00;;;;2081741;28;20214;-69
2023/07/31 01:26:42;;;;;;;15.93;10.75;;;;;23.30;99977.00;;;;2057130;28;20305;-69
2023/07/31 01:27:59;;;;;;;12.80;10.10;;;;;23.30;99936.00;;;;2063028;28;20244;-69
2023/07/31 01:29:02;;;;;;;12.93;9.93;;;;;23.30;99975.00;;;;2062546;28;20211;-69
2023/07/31 01:30:10;;;;;;;13.60;9.60;;;;;23.20;99981.00;;;;2064055;28;20305;-69
2023/07/31 01:31:13;;;;;;;19.20;10.05;;;;;23.20;99978.00;;;;2066499;28;20306;-69
2023/07/31 01:32:14;;;;;;;13.95;10.02;;;;;23.30;99980.00;;;;2045004;28;20216;-69
2023/07/31 01:33:15;;;;;;;18.53;9.60;;;;;23.30;99984.00;;;;2062683;28;20635;-69
2023/07/31 01:34:16;;;;;;;13.75;9.25;;;;;23.30;99983.00;;;;2069852;28;20256;-69
2023/07/31 01:35:16;;;;;;;12.20;9.07;;;;;23.30;99987.00;;;;2069657;28;20246;-69
2023/07/31 01:36:16;;;;;;;12.87;9.00;;;;;23.30;99989.00;;;;2070071;28;20221;-69
2023/07/31 01:37:17;;;;;;;13.90;9.77;;;;;23.30;99978.00;;;;2053525;28;20735;-69
2023/07/31 01:38:21;;;;;;;12.00;8.50;;;;;23.30;99978.00;;;;2061534;28;20718;-69
2023/07/31 01:39:21;;;;;;;11.48;8.10;;;;;23.30;99975.00;;;;2067103;28;20242;-69
2023/07/31 01:40:22;;;;;;;11.20;9.10;;;;;23.30;99976.00;;;;2075282;28;20210;-69
2023/07/31 01:41:22;;;;;;;13.43;8.30;;;;;23.20;99973.00;;;;2073192;28;20578;-69
2023/07/31 01:42:22;;;;;;;13.37;8.80;;;;;23.20;99980.00;;;;2069152;28;20256;-69
2023/07/31 01:43:24;;;;;;;10.73;8.07;;;;;23.20;99979.00;;;;2069052;28;20210;-69
2023/07/31 01:44:24;;;;;;;12.38;8.48;;;;;23.30;99972.00;;;;2066801;28;20681;-69
2023/07/31 01:45:24;;;;;;;11.00;8.13;;;;;23.30;99969.00;;;;2068909;28;20210;-69
2023/07/31 01:46:25;;;;;;;12.40;8.00;;;;;23.20;99969.00;;;;2072489;28;20214;-69
2023/07/31 01:47:25;;;;;;;11.60;7.70;;;;;23.30;99968.00;;;;2065525;28;20576;-69
2023/07/31 01:48:25;;;;;;;12.27;8.10;;;;;23.30;99966.00;;;;2073285;28;20253;-69
2023/07/31 01:49:26;;;;;;;10.50;7.23;;;;;23.30;99970.00;;;;2070224;28;20618;-69
2023/07/31 01:50:26;;;;;;;10.63;7.70;;;;;23.20;99968.00;;;;2069899;28;20239;-69
2023/07/31 01:51:26;;;;;;;9.47;7.43;;;;;23.30;99969.00;;;;2071575;28;20911;-69
2023/07/31 01:52:27;;;;;;;12.93;7.70;;;;;23.30;99967.00;;;;2061243;28;20230;-69
2023/07/31 01:53:27;;;;;;;11.33;7.70;;;;;23.30;99974.00;;;;2073513;28;20272;-69
2023/07/31 01:54:27;;;;;;;9.67;6.97;;;;;23.20;99964.00;;;;2071154;28;20220;-69
2023/07/31 01:55:28;;;;;;;9.40;6.80;;;;;23.30;99963.00;;;;2069448;28;20275;-69
2023/07/31 01:56:28;;;;;;;10.80;7.60;;;;;23.30;99950.00;;;;2065746;28;20222;-69
2023/07/31 01:57:29;;;;;;;9.37;6.80;;;;;23.20;99968.00;;;;2061305;28;20226;-69
2023/07/31 01:58:29;;;;;;;8.93;6.10;;;;;23.30;99958.00;;;;2075023;28;20341;-69
2023/07/31 01:59:29;;;;;;;9.43;6.93;;;;;23.30;99962.00;;;;2073011;28;20657;-69
2023/07/31 02:00:29;;;;;;;9.13;7.20;;;;;23.20;99972.00;;;;2072955;28;20690;-69
2023/07/31 02:01:30;;;;;;;9.23;6.63;;;;;23.30;99967.00;;;;2077214;28;20723;-69
2023/07/31 02:02:31;;;;;;;9.27;6.20;;;;;23.30;99959.00;;;;2060557;28;20308;-69
2023/07/31 02:03:31;;;;;;;9.20;6.75;;;;;23.30;99953.00;;;;2068291;28;20565;-69
2023/07/31 02:04:32;;;;;;;8.93;6.47;;;;;23.20;99968.00;;;;2067107;28;20273;-69
2023/07/31 02:05:32;;;;;;;9.03;6.13;;;;;23.30;99957.00;;;;2073271;28;20213;-69
2023/07/31 02:06:32;;;;;;;8.57;5.87;;;;;23.30;99962.00;;;;2078663;28;20563;-69
2023/07/31 02:07:33;;;;;;;8.37;6.37;;;;;23.30;99959.00;;;;2061408;28;20578;-69
2023/07/31 02:08:33;;;;;;;8.70;6.00;;;;;23.30;99963.00;;;;2059187;28;20221;-69
2023/07/31 02:09:33;;;;;;;9.50;6.00;;;;;23.20;99962.00;;;;2056481;28;21090;-69
2023/07/31 02:10:34;;;;;;;8.67;6.00;;;;;23.20;99968.00;;;;2069142;28;20219;-69
2023/07/31 02:11:34;;;;;;;8.80;5.47;;;;;23.30;99949.00;;;;2065791;28;20615;-69
2023/07/31 02:12:34;;;;;;;7.20;5.60;;;;;23.20;99951.00;;;;2063261;28;20690;-69
2023/07/31 02:13:35;;;;;;;9.10;5.67;;;;;23.30;99948.00;;;;2077028;28;20236;-69
2023/07/31 02:14:35;;;;;;;9.60;6.30;;;;;23.20;99948.00;;;;2074052;28;20218;-69
2023/07/31 02:15:36;;;;;;;7.17;4.97;;;;;23.20;99938.00;;;;2069888;28;20227;-69
2023/07/31 02:16:36;;;;;;;8.75;5.20;;;;;23.30;99948.00;;;;2071996;28;20583;-69
2023/07/31 02:17:37;;;;;;;9.87;5.30;;;;;23.20;99944.00;;;;2059697;28;20211;-69
2023/07/31 02:18:37;;;;;;;8.47;6.03;;;;;23.20;99941.00;;;;2073057;28;20271;-69
2023/07/31 02:19:37;;;;;;;8.93;5.73;;;;;23.30;99920.00;;;;2074466;28;20218;-69
2023/07/31 02:20:38;;;;;;;6.30;4.97;;;;;23.30;99944.00;;;;2076288;28;20573;-68
2023/07/31 02:21:38;;;;;;;7.47;5.03;;;;;23.20;99938.00;;;;2074172;28;21024;-68
2023/07/31 02:22:38;;;;;;;8.40;5.23;;;;;23.20;99942.00;;;;2059367;28;20230;-68
2023/07/31 02:23:39;;;;;;;6.03;4.93;;;;;23.20;99939.00;;;;2070207;28;20218;-68
2023/07/31 02:24:39;;;;;;;8.33;5.37;;;;;23.30;99945.00;;;;2074811;28;20228;-68
2023/07/31 02:25:39;;;;;;;9.43;5.53;;;;;23.20;99942.00;;;;2073550;28;20242;-68
2023/07/31 02:26:40;;;;;;;7.43;5.30;;;;;23.20;99943.00;;;;2073802;28;20229;-68
2023/07/31 02:27:40;;;;;;;6.93;4.87;;;;;23.20;99944.00;;;;2068212;28;20237;-68
2023/07/31 02:28:42;;;;;;;6.60;4.53;;;;;23.20;99947.00;;;;2072057;28;20223;-68
2023/07/31 02:29:43;;;;;;;7.78;5.68;;;;;23.20;99945.00;;;;2072912;28;20214;-68
2023/07/31 02:30:46;;;;;;;8.23;5.70;;;;;23.20;99946.00;;;;2069241;28;20285;-68
2023/07/31 02:31:46;;;;;;;6.57;4.70;;;;;23.20;99936.00;;;;2067633;28;20226;-68
2023/07/31 02:32:47;;;;;;;7.63;4.80;;;;;23.20;99945.00;;;;2058100;28;20221;-68
2023/07/31 02:33:47;;;;;;;7.63;5.30;;;;;23.20;99957.00;;;;2076548;28;20231;-68
2023/07/31 02:34:47;;;;;;;5.33;4.20;;;;;23.20;99934.00;;;;2068424;28;20215;-69
2023/07/31 02:35:48;;;;;;;8.60;4.70;;;;;23.20;99934.00;;;;2066321;28;20224;-69
2023/07/31 02:36:48;;;;;;;6.63;4.27;;;;;23.20;99945.00;;;;2071308;28;20214;-69
2023/07/31 02:37:48;;;;;;;6.03;4.10;;;;;23.30;99953.00;;;;2063070;28;20213;-69
2023/07/31 02:38:49;;;;;;;5.83;4.50;;;;;23.20;99934.00;;;;2072724;28;20221;-69
2023/07/31 02:39:49;;;;;;;7.40;4.33;;;;;23.30;99933.00;;;;2076466;28;20286;-69
2023/07/31 02:40:49;;;;;;;8.67;4.93;;;;;23.20;99940.00;;;;2071819;28;20218;-69
2023/07/31 02:41:50;;;;;;;6.90;3.73;;;;;23.30;99945.00;;;;2072944;28;20276;-69
2023/07/31 02:42:50;;;;;;;6.30;4.40;;;;;23.30;99932.00;;;;2061939;28;20276;-69
2023/07/31 02:43:50;;;;;;;5.60;4.00;;;;;23.30;99941.00;;;;2073576;28;20214;-69
2023/07/31 02:44:55;;;;;;;7.17;5.13;;;;;23.20;99944.00;;;;2075472;28;20214;-69
2023/07/31 02:45:55;;;;;;;5.80;4.05;;;;;23.20;99935.00;;;;2074920;28;20221;-69
2023/07/31 02:46:56;;;;;;;7.07;4.60;;;;;23.20;99930.00;;;;2074860;28;20233;-69
2023/07/31 02:47:56;;;;;;;6.70;3.70;;;;;23.20;99932.00;;;;2061524;28;20237;-69
2023/07/31 02:48:56;;;;;;;6.63;4.30;;;;;23.20;99944.00;;;;2071960;28;20214;-69
2023/07/31 02:49:57;;;;;;;5.80;4.03;;;;;23.20;99939.00;;;;2071307;28;20214;-69
2023/07/31 02:50:57;;;;;;;6.17;4.30;;;;;23.20;99936.00;;;;2078136;28;20248;-69
2023/07/31 02:51:58;;;;;;;5.87;4.00;;;;;23.20;99935.00;;;;2073543;28;20210;-69
2023/07/31 02:52:58;;;;;;;6.87;4.20;;;;;23.20;99946.00;;;;2074000;28;20758;-69
2023/07/31 02:53:58;;;;;;;6.23;3.90;;;;;23.30;99929.00;;;;2067639;28;20242;-69
2023/07/31 02:54:59;;;;;;;5.70;4.00;;;;;23.30;99932.00;;;;2067147;28;20207;-69
2023/07/31 02:55:59;;;;;;;5.07;3.53;;;;;23.20;99941.00;;;;2076870;28;20217;-69
2023/07/31 02:56:59;;;;;;;6.53;4.50;;;;;23.20;99929.00;;;;2063414;28;20575;-69
2023/07/31 02:58:00;;;;;;;5.43;3.47;;;;;23.20;99930.00;;;;2072662;28;20603;-69
2023/07/31 02:59:00;;;;;;;6.93;3.93;;;;;23.20;99932.00;;;;2068340;28;20919;-69
2023/07/31 03:00:00;;;;;;;5.57;3.80;;;;;23.20;99925.00;;;;2077080;28;20206;-69
2023/07/31 03:01:00;;;;;;;4.87;3.43;;;;;23.20;99937.00;;;;2066837;28;20261;-69
2023/07/31 03:02:01;;;;;;;7.00;3.87;;;;;23.20;99925.00;;;;2054666;28;20650;-69
2023/07/31 03:03:01;;;;;;;5.97;3.97;;;;;23.30;99925.00;;;;2066743;28;20738;-69
2023/07/31 03:04:01;;;;;;;7.20;3.57;;;;;23.30;99925.00;;;;2073571;28;20564;-69
2023/07/31 03:05:02;;;;;;;6.00;3.50;;;;;23.20;99924.00;;;;2069402;28;20570;-69
2023/07/31 03:06:02;;;;;;;5.30;3.80;;;;;23.20;99917.00;;;;2065641;28;20613;-69
2023/07/31 03:07:03;;;;;;;6.90;4.13;;;;;23.20;99930.00;;;;2058610;28;20245;-69
2023/07/31 03:08:03;;;;;;;6.77;4.00;;;;;23.20;99923.00;;;;2076606;28;20213;-69
2023/07/31 03:09:04;;;;;;;7.47;4.00;;;;;23.20;99919.00;;;;2071066;28;20743;-69
2023/07/31 03:10:05;;;;;;;5.40;3.40;;;;;23.20;99931.00;;;;2067191;28;20269;-69
2023/07/31 03:11:05;;;;;;;7.60;3.53;;;;;23.20;99921.00;;;;2074754;28;20209;-69
2023/07/31 03:12:06;;;;;;;7.50;4.10;;;;;23.20;99914.00;;;;2061939;28;20272;-69
2023/07/31 03:13:06;;;;;;;6.20;3.73;;;;;23.20;99907.00;;;;2074351;28;20221;-69
2023/07/31 03:14:07;;;;;;;3.93;3.07;;;;;23.20;99910.00;;;;2070086;28;20234;-69
2023/07/31 03:15:08;;;;;;;4.20;2.93;;;;;23.20;99905.00;;;;2063069;28;20214;-69
2023/07/31 03:16:08;;;;;;;4.77;2.90;;;;;23.20;99914.00;;;;2069157;28;20229;-69
2023/07/31 03:17:09;;;;;;;6.80;3.57;;;;;23.20;99907.00;;;;2068035;28;20214;-69
2023/07/31 03:18:09;;;;;;;5.60;3.67;;;;;23.20;99913.00;;;;2074909;28;20503;-69
2023/07/31 03:19:09;;;;;;;6.87;4.07;;;;;23.20;99915.00;;;;2072565;28;20260;-69
2023/07/31 03:20:10;;;;;;;5.67;3.27;;;;;23.20;99908.00;;;;2074484;28;20209;-69
2023/07/31 03:21:12;;;;;;;5.30;3.37;;;;;23.20;99914.00;;;;2071630;28;20369;-69
2023/07/31 03:22:12;;;;;;;5.30;3.20;;;;;23.20;99918.00;;;;2053262;28;20231;-69
2023/07/31 03:23:12;;;;;;;5.40;3.93;;;;;23.20;99912.00;;;;2072849;28;20225;-69
2023/07/31 03:24:13;;;;;;;7.33;3.87;;;;;23.20;99913.00;;;;2078856;28;20217;-69
2023/07/31 03:25:14;;;;;;;5.07;3.17;;;;;23.20;99913.00;;;;2066281;28;20261;-69
2023/07/31 03:26:14;;;;;;;5.15;2.85;;;;;23.20;99910.00;;;;2069168;28;20276;-69
2023/07/31 03:27:14;;;;;;;5.10;2.90;;;;;23.20;99910.00;;;;2055090;28;20222;-69
2023/07/31 03:28:15;;;;;;;6.27;2.90;;;;;23.20;99913.00;;;;2071370;28;20238;-69
2023/07/31 03:29:15;;;;;;;4.33;3.00;;;;;23.20;99909.00;;;;2077837;28;20213;-69
2023/07/31 03:30:15;;;;;;;4.43;2.77;;;;;23.20;99904.00;;;;2074751;28;20222;-69
2023/07/31 03:31:16;;;;;;;4.37;2.90;;;;;23.20;99909.00;;;;2070388;28;20268;-68
2023/07/31 03:32:16;;;;;;;6.23;3.63;;;;;23.20;99909.00;;;;2055664;28;20258;-68
2023/07/31 03:33:16;;;;;;;4.33;3.30;;;;;23.20;99911.00;;;;2072533;28;20678;-68
2023/07/31 03:34:17;;;;;;;8.27;3.77;;;;;23.20;99912.00;;;;2076327;28;20244;-68
2023/07/31 03:35:17;;;;;;;5.10;3.20;;;;;23.20;99872.00;;;;2060465;28;20218;-68
2023/07/31 03:36:18;;;;;;;5.00;3.00;;;;;23.20;99909.00;;;;2063547;28;20297;-68
2023/07/31 03:37:18;;;;;;;4.17;2.80;;;;;23.20;99907.00;;;;2060019;28;20226;-68
2023/07/31 03:38:18;;;;;;;6.23;3.10;;;;;23.20;99915.00;;;;2079990;28;20236;-68
2023/07/31 03:39:19;;;;;;;5.00;3.27;;;;;23.20;99911.00;;;;2070457;28;20607;-68
2023/07/31 03:40:19;;;;;;;6.00;3.27;;;;;23.20;99908.00;;;;2071833;28;20721;-68
2023/07/31 03:41:19;;;;;;;5.13;3.13;;;;;23.20;99908.00;;;;2072188;28;20210;-68
2023/07/31 03:42:20;;;;;;;4.90;3.20;;;;;23.20;99911.00;;;;2061398;28;20233;-69
2023/07/31 03:43:20;;;;;;;6.33;3.17;;;;;23.20;99911.00;;;;2067690;28;20215;-69
2023/07/31 03:44:20;;;;;;;6.73;3.60;;;;;23.20;99920.00;;;;2074619;28;20264;-69
2023/07/31 03:45:20;;;;;;;4.23;3.23;;;;;23.20;99907.00;;;;2075307;28;20210;-69
2023/07/31 03:46:22;;;;;;;7.33;3.87;;;;;23.20;99903.00;;;;2065447;28;20269;-69
2023/07/31 03:47:22;;;;;;;4.40;2.75;;;;;23.20;99899.00;;;;2062513;28;20218;-69
2023/07/31 03:48:22;;;;;;;4.00;3.00;;;;;23.20;99913.00;;;;2072044;28;20234;-69
2023/07/31 03:49:23;;;;;;;5.83;3.20;;;;;23.20;99903.00;;;;2071089;28;20206;-69
2023/07/31 03:50:24;;;;;;;4.47;2.70;;;;;23.20;99906.00;;;;2067159;28;20226;-69
2023/07/31 03:51:25;;;;;;;3.88;2.90;;;;;23.20;99906.00;;;;2073570;28;20206;-69
2023/07/31 03:52:25;;;;;;;5.00;3.50;;;;;23.20;99909.00;;;;2062117;28;20226;-69
2023/07/31 03:53:25;;;;;;;4.50;3.17;;;;;23.20;99909.00;;;;2075295;28;20209;-69
2023/07/31 03:54:26;;;;;;;5.30;3.07;;;;;23.20;99897.00;;;;2072402;28;20210;-69
2023/07/31 03:55:26;;;;;;;6.93;3.10;;;;;23.20;99899.00;;;;2069863;28;20232;-69
2023/07/31 03:56:26;;;;;;;5.30;3.10;;;;;23.20;99910.00;;;;2071538;28;20333;-69
2023/07/31 03:57:27;;;;;;;4.67;3.53;;;;;23.20;99898.00;;;;2062648;28;20299;-69
2023/07/31 03:58:27;;;;;;;5.10;3.30;;;;;23.20;99904.00;;;;2071330;28;20225;-69
2023/07/31 03:59:27;;;;;;;5.47;2.70;;;;;23.20;99915.00;;;;2071085;28;20249;-69
2023/07/31 04:00:28;;;;;;;5.27;3.60;;;;;23.20;99896.00;;;;2066861;28;20698;-69
2023/07/31 04:01:28;;;;;;;5.73;3.43;;;;;23.20;99895.00;;;;2071372;28;20796;-69
2023/07/31 04:02:28;;;;;;;6.03;3.03;;;;;23.20;99898.00;;;;2059441;28;20286;-69
2023/07/31 04:03:29;;;;;;;3.80;2.80;;;;;23.20;99908.00;;;;2075337;28;20245;-69
2023/07/31 04:04:29;;;;;;;5.20;3.23;;;;;23.20;99896.00;;;;2066149;28;20225;-69
2023/07/31 04:05:31;;;;;;;4.63;2.67;;;;;23.20;99914.00;;;;2070181;28;20837;-69
2023/07/31 04:06:31;;;;;;;5.38;3.72;;;;;23.20;99905.00;;;;2075743;28;20624;-69
2023/07/31 04:07:32;;;;;;;4.20;3.10;;;;;23.20;99896.00;;;;2064663;28;20221;-69
2023/07/31 04:08:32;;;;;;;6.53;2.90;;;;;23.20;99896.00;;;;2074833;28;20210;-69
2023/07/31 04:09:32;;;;;;;4.87;2.83;;;;;23.20;99897.00;;;;2071879;28;20206;-69
2023/07/31 04:10:33;;;;;;;4.53;2.90;;;;;23.20;99896.00;;;;2070266;28;20241;-69
2023/07/31 04:11:33;;;;;;;4.20;2.80;;;;;23.20;99901.00;;;;2068292;28;20293;-69
2023/07/31 04:12:34;;;;;;;5.27;3.00;;;;;23.20;99901.00;;;;2062599;28;20229;-69
2023/07/31 04:13:34;;;;;;;3.80;3.10;;;;;23.20;99904.00;;;;2071226;28;20342;-69
2023/07/31 04:14:34;;;;;;;5.40;3.03;;;;;23.20;99891.00;;;;2072231;28;20225;-69
2023/07/31 04:15:35;;;;;;;5.23;2.90;;;;;23.20;99897.00;;;;2068726;28;20225;-69
2023/07/31 04:16:35;;;;;;;4.23;2.80;;;;;23.20;99896.00;;;;2068524;28;20322;-69
2023/07/31 04:17:35;;;;;;;5.20;2.90;;;;;23.20;99891.00;;;;2052345;28;20222;-69
2023/07/31 04:18:37;;;;;;;5.87;3.30;;;;;23.20;99893.00;;;;2064981;28;20258;-69
2023/07/31 04:19:37;;;;;;;4.63;2.63;;;;;23.20;99888.00;;;;2066326;28;20249;-69
2023/07/31 04:20:37;;;;;;;3.70;2.50;;;;;23.20;99888.00;;;;2075247;28;20589;-69
2023/07/31 04:21:38;;;;;;;5.50;2.83;;;;;23.20;99884.00;;;;2071218;28;20804;-69
2023/07/31 04:22:38;;;;;;;4.87;3.30;;;;;23.20;99887.00;;;;2067577;28;20709;-69
2023/07/31 04:23:38;;;;;;;6.30;3.03;;;;;23.00;99890.00;;;;2069188;28;20721;-69
2023/07/31 04:24:39;;;;;;;6.20;3.40;;;;;23.20;99885.00;;;;2066004;28;20245;-69
2023/07/31 04:25:39;;;;;;;3.93;2.90;;;;;23.20;99886.00;;;;2075520;28;20248;-69
2023/07/31 04:26:39;;;;;;;4.97;2.80;;;;;23.20;99880.00;;;;2068355;28;20226;-69
2023/07/31 04:27:40;;;;;;;5.97;3.10;;;;;23.10;99878.00;;;;2055838;28;20260;-69
2023/07/31 04:28:40;;;;;;;5.63;3.03;;;;;23.20;99888.00;;;;2073394;28;20213;-69
2023/07/31 04:29:42;;;;;;;3.90;2.40;;;;;23.20;99883.00;;;;2072091;28;20226;-69
2023/07/31 04:30:42;;;;;;;4.05;2.90;;;;;23.20;99890.00;;;;2066569;28;20217;-69
2023/07/31 04:31:42;;;;;;;4.23;3.00;;;;;23.20;99898.00;;;;2074111;28;20256;-69
2023/07/31 04:32:43;;;;;;;5.23;2.67;;;;;23.20;99877.00;;;;2071294;28;20252;-69
2023/07/31 04:33:43;;;;;;;3.40;2.57;;;;;23.20;99877.00;;;;2076318;28;20218;-69
2023/07/31 04:34:43;;;;;;;5.17;3.00;;;;;23.20;99883.00;;;;2069545;28;20219;-69
2023/07/31 04:35:52;;;;;;;5.40;3.27;;;;;23.20;99875.00;;;;2069690;28;20268;-69
2023/07/31 04:36:52;;;;;;;4.55;2.63;;;;;23.20;99880.00;;;;2075060;28;20223;-69
2023/07/31 04:37:52;;;;;;;4.50;3.07;;;;;23.20;99875.00;;;;2062108;28;20252;-69
2023/07/31 04:38:53;;;;;;;6.40;3.40;;;;;23.20;99871.00;;;;2070512;28;20220;-69
2023/07/31 04:39:53;;;;;;;2.50;2.17;;;;;23.10;99878.00;;;;2065956;28;20225;-69
2023/07/31 04:40:53;;;;;;;4.47;2.73;;;;;23.20;99868.00;;;;2068439;28;20220;-69
2023/07/31 04:41:54;;;;;;;5.63;2.93;;;;;23.20;99868.00;;;;2067664;28;20269;-69
2023/07/31 04:42:54;;;;;;;4.43;2.60;;;;;23.20;99868.00;;;;2062432;28;20217;-69
2023/07/31 04:43:54;;;;;;;4.30;2.73;;;;;23.20;99852.00;;;;2079985;28;20303;-69
2023/07/31 04:44:55;;;;;;;3.60;2.57;;;;;23.20;99860.00;;;;2066498;28;20218;-69
2023/07/31 04:45:55;;;;;;;4.87;2.90;;;;;23.20;99865.00;;;;2068348;28;20233;-69
2023/07/31 04:46:56;;;;;;;2.83;2.20;;;;;23.20;99864.00;;;;2070369;28;20214;-69
2023/07/31 04:47:56;;;;;;;3.23;2.63;;;;;23.20;99865.00;;;;2064245;28;20267;-69
2023/07/31 04:48:56;;;;;;;5.50;2.83;;;;;23.20;99869.00;;;;2072174;28;20230;-69
2023/07/31 04:49:57;;;;;;;4.07;2.50;;;;;23.20;99869.00;;;;2076506;28;20226;-69
2023/07/31 04:50:57;;;;;;;3.60;2.90;;;;;23.20;99869.00;;;;2067904;28;20296;-69
2023/07/31 04:51:57;;;;;;;3.60;2.90;;;;;23.20;99857.00;;;;2066623;28;20222;-69
2023/07/31 04:52:58;;;;;;;3.40;2.73;;;;;23.20;99868.00;;;;2068543;28;20296;-69
2023/07/31 04:53:58;;;;;;;5.47;3.17;;;;;23.20;99876.00;;;;2072751;28;20237;-69
2023/07/31 04:54:58;;;;;;;3.97;2.50;;;;;23.20;99849.00;;;;2066592;28;20245;-69
2023/07/31 04:55:59;;;;;;;5.37;2.93;;;;;23.20;99866.00;;;;2074405;28;20213;-69
2023/07/31 04:56:59;;;;;;;5.83;3.27;;;;;23.20;99870.00;;;;2068940;28;20637;-69
2023/07/31 04:57:59;;;;;;;4.40;2.90;;;;;23.20;99862.00;;;;2074953;28;20639;-69
2023/07/31 04:59:00;;;;;;;4.90;3.10;;;;;23.20;99856.00;;;;2075169;28;20704;-69
2023/07/31 05:00:00;;;;;;;3.43;2.73;;;;;23.20;99856.00;;;;2067377;28;20671;-69
2023/07/31 05:01:00;;;;;;;8.30;3.27;;;;;23.20;99856.00;;;;2068343;28;20610;-69
2023/07/31 05:02:01;;;;;;;3.90;2.63;;;;;23.20;99855.00;;;;2059773;28;20725;-69
2023/07/31 05:03:01;;;;;;;3.90;2.40;;;;;23.20;99858.00;;;;2073190;28;20221;-69
2023/07/31 05:04:02;;;;;;;3.13;2.27;;;;;23.20;99856.00;;;;2068184;28;20218;-69